createdAt,value
2022-07-28T00:02:29.206Z,17.89
2022-07-28T00:07:31.169Z,17.79
2022-07-28T00:12:33.397Z,17.71
2022-07-28T00:17:35.554Z,17.65
2022-07-28T00:22:44.780Z,17.63
2022-07-28T00:27:46.584Z,17.62
2022-07-28T00:32:48.439Z,17.60
2022-07-28T00:37:50.408Z,17.58
2022-07-28T00:42:53.466Z,17.55
2022-07-28T00:47:55.310Z,17.49
2022-07-28T00:52:58.305Z,17.45
2022-07-28T00:58:00.939Z,17.41
2022-07-28T01:03:05.373Z,17.35
2022-07-28T01:08:18.238Z,17.30
2022-07-28T01:13:30.081Z,17.25
2022-07-28T01:19:12.802Z,17.19
2022-07-28T01:24:40.714Z,17.13
2022-07-28T01:30:06.467Z,17.09
2022-07-28T01:35:23.528Z,17.03
2022-07-28T01:40:29.713Z,16.97
2022-07-28T01:45:33.946Z,16.90
2022-07-28T01:50:37.930Z,16.86
2022-07-28T01:55:42.675Z,16.82
2022-07-28T02:00:52.513Z,16.78
2022-07-28T02:05:57.470Z,16.72
2022-07-28T02:11:18.488Z,16.67
2022-07-28T02:16:25.027Z,16.66
2022-07-28T02:21:30.215Z,16.62
2022-07-28T02:26:37.124Z,16.59
2022-07-28T02:31:51.865Z,16.58
2022-07-28T02:36:58.081Z,16.58
2022-07-28T02:42:15.682Z,16.56
2022-07-28T02:47:22.841Z,16.52
2022-07-28T02:52:27.235Z,16.48
2022-07-28T02:57:31.217Z,16.39
2022-07-28T03:02:36.770Z,16.35
2022-07-28T03:07:50.347Z,16.28
2022-07-28T03:12:55.244Z,16.22
2022-07-28T03:17:57.110Z,16.19
2022-07-28T03:22:59.651Z,16.11
2022-07-28T03:28:04.153Z,16.04
2022-07-28T03:33:07.168Z,16.01
2022-07-28T03:38:13.757Z,15.98
2022-07-28T03:43:21.622Z,15.96
2022-07-28T03:48:31.644Z,15.94
2022-07-28T03:53:33.639Z,15.92
2022-07-28T03:58:36.121Z,15.94
2022-07-28T04:03:43.915Z,15.97
2022-07-28T04:08:46.680Z,16.00
2022-07-28T04:13:48.702Z,16.04
2022-07-28T04:18:50.595Z,16.09
2022-07-28T04:23:52.512Z,16.13
2022-07-28T04:28:54.353Z,16.17
2022-07-28T04:33:56.403Z,16.22
2022-07-28T04:38:59.495Z,16.23
2022-07-28T04:44:01.563Z,16.26
2022-07-28T04:49:04.611Z,16.33
2022-07-28T04:54:06.543Z,16.41
2022-07-28T04:59:08.961Z,16.51
2022-07-28T05:04:12.795Z,16.62
2022-07-28T05:09:14.958Z,16.72
2022-07-28T05:14:17.626Z,16.85
2022-07-28T05:19:19.517Z,16.99
2022-07-28T05:24:21.575Z,17.09
2022-07-28T05:29:23.873Z,17.22
2022-07-28T05:34:25.761Z,17.37
2022-07-28T05:39:27.833Z,17.45
2022-07-28T05:44:33.478Z,17.51
2022-07-28T05:49:39.774Z,17.48
2022-07-28T05:54:41.638Z,17.53
2022-07-28T05:59:43.567Z,17.62
2022-07-28T06:04:45.400Z,17.76
2022-07-28T06:09:47.257Z,17.86
2022-07-28T06:14:49.223Z,18.07
2022-07-28T06:19:53.790Z,18.25
2022-07-28T06:24:55.877Z,18.45
2022-07-28T06:29:57.723Z,18.60
2022-07-28T06:34:59.694Z,18.73
2022-07-28T06:40:01.713Z,18.82
2022-07-28T06:45:05.353Z,18.84
2022-07-28T06:50:25.687Z,18.85
2022-07-28T06:55:35.342Z,18.90
2022-07-28T07:00:38.568Z,18.98
2022-07-28T07:05:40.475Z,19.12
2022-07-28T07:10:42.339Z,19.16
2022-07-28T07:15:44.234Z,19.22
2022-07-28T07:20:46.138Z,19.35
2022-07-28T07:25:48.165Z,19.46
2022-07-28T07:30:50.076Z,19.51
2022-07-28T07:35:51.948Z,19.64
2022-07-28T07:40:54.082Z,19.86
2022-07-28T07:45:56.032Z,20.09
2022-07-28T07:50:58.025Z,20.26
2022-07-28T07:56:00.051Z,20.51
2022-07-28T08:01:02.011Z,20.58
2022-07-28T08:06:04.124Z,20.59
2022-07-28T08:11:06.085Z,20.65
2022-07-28T08:16:10.015Z,20.88
2022-07-28T08:21:13.211Z,21.05
2022-07-28T08:26:15.159Z,21.20
2022-07-28T08:31:21.965Z,21.31
2022-07-28T08:36:24.545Z,21.48
2022-07-28T08:41:36.794Z,21.58
2022-07-28T08:46:39.077Z,21.66
2022-07-28T08:51:42.407Z,21.80
2022-07-28T08:56:47.890Z,21.91
2022-07-28T09:01:57.263Z,22.06
2022-07-28T09:07:03.425Z,22.11
2022-07-28T09:12:06.443Z,22.26
2022-07-28T09:17:08.924Z,22.40
2022-07-28T09:22:10.989Z,22.47
2022-07-28T09:27:15.299Z,22.47
2022-07-28T09:32:20.674Z,22.52
2022-07-28T09:37:28.660Z,22.58
2022-07-28T09:42:47.109Z,22.73
2022-07-28T09:47:49.403Z,22.90
2022-07-28T09:52:54.703Z,23.01
2022-07-28T09:57:56.989Z,23.04
2022-07-28T10:03:00.218Z,23.08
2022-07-28T10:08:02.381Z,23.24
2022-07-28T10:13:07.978Z,23.29
2022-07-28T10:18:09.859Z,23.39
2022-07-28T10:23:14.868Z,23.55
2022-07-28T10:28:22.999Z,23.61
2022-07-28T10:33:26.394Z,23.66
2022-07-28T10:38:36.521Z,23.69
2022-07-28T10:43:42.573Z,23.84
2022-07-28T10:48:45.351Z,23.96
2022-07-28T10:53:54.815Z,24.06
2022-07-28T10:59:21.943Z,24.02
2022-07-28T11:04:49.064Z,24.09
2022-07-28T11:09:52.342Z,24.17
2022-07-28T11:14:55.032Z,24.19
2022-07-28T11:25:22.706Z,24.29
2022-07-28T11:30:36.938Z,24.35
2022-07-28T11:35:38.958Z,24.43
2022-07-28T11:40:45.411Z,24.50
2022-07-28T11:45:55.628Z,24.52
2022-07-28T11:51:04.319Z,24.53
2022-07-28T11:56:26.260Z,24.66
2022-07-28T12:01:32.143Z,24.65
2022-07-28T12:06:40.567Z,24.69
2022-07-28T12:11:42.761Z,24.76
2022-07-28T12:16:50.031Z,24.78
2022-07-28T12:21:52.845Z,24.82
2022-07-28T12:26:55.765Z,24.82
2022-07-28T12:32:01.115Z,24.81
2022-07-28T12:37:05.363Z,24.79
2022-07-28T12:42:10.489Z,24.86
2022-07-28T12:47:14.704Z,24.89
2022-07-28T12:52:23.290Z,24.96
2022-07-28T12:57:47.983Z,24.97
2022-07-28T13:02:53.317Z,24.92
2022-07-28T13:08:06.458Z,24.93
2022-07-28T13:13:08.356Z,24.92
2022-07-28T13:18:11.003Z,24.96
2022-07-28T13:23:12.832Z,25.01
2022-07-28T13:28:26.702Z,25.06
2022-07-28T13:33:28.874Z,25.01
2022-07-28T13:38:31.645Z,24.98
2022-07-28T13:43:35.774Z,25.00
2022-07-28T13:48:57.329Z,25.05
2022-07-28T13:54:02.334Z,25.09
2022-07-28T13:59:04.306Z,25.12
2022-07-28T14:04:16.655Z,25.19
2022-07-28T14:09:21.212Z,25.26
2022-07-28T14:14:25.662Z,25.37
2022-07-28T14:19:39.653Z,25.39
2022-07-28T14:24:42.883Z,25.36
2022-07-28T14:29:45.863Z,25.37
2022-07-28T14:34:47.726Z,25.42
2022-07-28T14:39:49.565Z,25.49
2022-07-28T14:44:51.480Z,25.58
2022-07-28T14:49:57.132Z,25.67
2022-07-28T14:55:00.467Z,25.71
2022-07-28T15:00:02.510Z,25.72
2022-07-28T15:05:05.673Z,25.74
2022-07-28T15:10:08.250Z,25.77
2022-07-28T15:15:11.168Z,25.80
2022-07-28T15:20:13.665Z,25.73
2022-07-28T15:25:15.995Z,25.62
2022-07-28T15:30:18.359Z,25.52
2022-07-28T15:35:20.369Z,25.45
2022-07-28T15:40:22.586Z,25.40
2022-07-28T15:45:25.662Z,25.36
2022-07-28T15:50:27.853Z,25.34
2022-07-28T15:55:30.088Z,25.31
2022-07-28T16:00:33.979Z,25.26
2022-07-28T16:05:36.200Z,25.21
2022-07-28T16:10:38.382Z,25.15
2022-07-28T16:15:40.833Z,25.12
2022-07-28T16:20:43.008Z,25.10
2022-07-28T16:25:45.267Z,25.05
2022-07-28T16:30:48.170Z,25.03
2022-07-28T16:35:50.151Z,24.99
2022-07-28T16:40:54.930Z,24.95
2022-07-28T16:45:57.457Z,24.89
2022-07-28T16:50:59.747Z,24.85
2022-07-28T16:56:01.782Z,24.80
2022-07-28T17:01:03.856Z,24.76
2022-07-28T17:06:06.716Z,24.73
2022-07-28T17:11:08.749Z,24.67
2022-07-28T17:16:10.900Z,24.62
2022-07-28T17:21:13.277Z,24.55
2022-07-28T17:27:30.653Z,24.54
2022-07-28T17:31:39.263Z,24.47
2022-07-28T17:36:45.731Z,24.42
2022-07-28T17:41:47.862Z,24.36
2022-07-28T17:46:50.567Z,24.31
2022-07-28T17:51:53.047Z,24.25
2022-07-28T17:56:56.888Z,24.20
2022-07-28T18:01:59.019Z,24.14
2022-07-28T18:07:02.458Z,24.10
2022-07-28T18:12:04.675Z,24.04
2022-07-28T18:17:06.820Z,23.96
2022-07-28T18:22:08.854Z,23.92
2022-07-28T18:27:11.104Z,23.85
2022-07-28T18:32:14.675Z,23.79
2022-07-28T18:37:16.795Z,23.70
2022-07-28T18:42:18.738Z,23.65
2022-07-28T18:47:20.777Z,23.57
2022-07-28T18:52:23.620Z,23.50
2022-07-28T18:57:25.967Z,23.44
2022-07-28T19:02:28.033Z,23.38
2022-07-28T19:07:30.861Z,23.29
2022-07-28T19:12:34.496Z,23.22
2022-07-28T19:17:37.216Z,23.14
2022-07-28T19:22:40.219Z,23.06
2022-07-28T19:27:42.493Z,22.99
2022-07-28T19:32:44.600Z,22.90
2022-07-28T19:37:46.526Z,22.77
2022-07-28T19:47:51.630Z,22.53
2022-07-28T19:52:53.643Z,22.41
2022-07-28T19:57:55.726Z,22.30
2022-07-28T20:02:57.651Z,22.21
2022-07-28T20:08:00.181Z,22.14
2022-07-28T20:13:03.583Z,22.11
2022-07-28T20:18:05.641Z,22.04
2022-07-28T20:23:07.411Z,21.97
2022-07-28T20:28:09.379Z,21.90
2022-07-28T20:33:11.179Z,21.82
2022-07-28T20:38:13.000Z,21.77
2022-07-28T20:43:14.830Z,21.72
2022-07-28T20:48:16.628Z,21.71
2022-07-28T20:53:18.928Z,21.70
2022-07-28T20:58:21.076Z,21.65
2022-07-28T21:03:23.062Z,21.59
2022-07-28T21:08:25.029Z,21.50
2022-07-28T21:13:26.922Z,21.42
2022-07-28T21:18:28.896Z,21.38
2022-07-28T21:23:55.679Z,21.31
2022-07-28T21:34:15.348Z,21.24
2022-07-28T21:39:17.736Z,21.19
2022-07-28T21:44:22.881Z,21.13
2022-07-28T21:49:26.398Z,21.08
2022-07-28T21:54:28.446Z,21.03
2022-07-28T21:59:30.359Z,20.96
2022-07-28T22:04:41.374Z,20.95
2022-07-28T22:09:43.427Z,20.92
2022-07-28T22:14:45.370Z,20.90
2022-07-28T22:19:47.390Z,20.86
2022-07-28T22:24:49.340Z,20.84
2022-07-28T22:29:52.283Z,20.81
2022-07-28T22:34:54.413Z,20.78
2022-07-28T22:39:56.258Z,20.76
2022-07-28T22:44:58.233Z,20.72
2022-07-28T22:50:00.265Z,20.71
2022-07-28T22:55:02.558Z,20.72
2022-07-28T23:00:06.117Z,20.68
2022-07-28T23:05:09.957Z,20.65
2022-07-28T23:10:12.439Z,20.57
2022-07-28T23:15:17.383Z,20.49
2022-07-28T23:20:19.268Z,20.42
2022-07-28T23:25:25.144Z,20.35
2022-07-28T23:30:27.430Z,20.33
2022-07-28T23:35:29.763Z,20.31
2022-07-28T23:40:31.955Z,20.26
2022-07-28T23:45:34.045Z,20.20
2022-07-28T23:50:36.138Z,20.15
2022-07-28T23:55:38.131Z,20.11
